Burgas, Bulgaria

5:57 PM EET on December 27, 2014 (GMT +0200)
Burgas | Change Station
CLOSE
Current Station
Personal Weather Station
Location: Burgas, BURGAS
Elevation: 121 ft
Nearby Weather Stations

Elev 121 ft 42.50 °N, 27.47 °E | Updated 1 minute ago

Scattered Clouds
Scattered Clouds
35.2 °F
Feels Like 28 °F
N
9.0
Wind Variable Wind from NNW
Gusts 22.0 mph

Today
High -- | Low -- °F
--% Chance of Precip.
Yesterday
High -- | Low -- °F
Precip. -- in
7:38 AM 4:43 PM
Waxing Crescent, 37% visible
Pressure 29.80 in
Visibility 6.2 miles
Clouds Scattered Clouds 2300 ft
Scattered Clouds 3900 ft
Windchill 28 °F
Dew Point 27 °F
Humidity 73%
Rainfall -999.00 in
Snow Depth Not available.
UV 0 out of 12
Pollen Not available.
Air Quality Not available.
Flu Activity Not available.
METAR LBBG 271530Z 31014KT 9999 SCT023 SCT039 02/M03 Q1009 NOSIG

More Conditions Fewer Conditions

Pressure 29.80 in
Visibility 6.2 miles
Clouds Scattered Clouds 2300 ft
Scattered Clouds 3900 ft
Windchill 28 °F
Dew Point 27 °F
Humidity 73%
Rainfall -999.00 in
Snow Depth Not available.
UV 0 out of 12
Pollen Not available.
Air Quality Not available.
Flu Activity Not available.
METAR LBBG 271530Z 31014KT 9999 SCT023 SCT039 02/M03 Q1009 NOSIG

More Conditions Fewer Conditions

10-Day Weather Forecast

Almanac

Astronomy

Dec. 27, 2014 Rise Set
Actual Time
Civil Twilight
Nautical Twilight
Astronomical Twilight
Moon
Length of Visible Light
Length of Day
Tomorrow will be .
, % of the Moon is Illuminated

Today's Extremes

Country Highs Country Lows

Community

WunderPhotos

Upload Photos

1,780,935 photos uploaded!

WunderBlogs® & News

Nearby

Air Quality

  Air Quality AQ Index Pollutant
Not available.

Snow Depth

Station Depth Elevation

Earthquake Activity

City Distance Mag. Time & Date
Minimum magnitude displayed is 2.5.

Coastal Water Temperatures

Place Temperature

Nearby Weather Stations